»·PEaware :: N923E KSBP-KSMX

N923E :: KSBP-KSMX

FLIGHT INFORMATION

Flight Status: Arrived
Operator: Privately registered:
United States
More flights under this callsign
Pilot: Louden S. (25159)
Aircraft: PIPER PA-22 TRI PACER/CARIBBEAN
(PA22)
More flights by this aircraft type
Origin: KSBP San Luis Co Regl
United States
Destination: KSMX Santa Maria Pub/Capt Hancock
United States
More flights between these airports :: More routes between these airports
Route: +
File this flight plan on PilotEdge
Remarks:
Altitude:
(Current/Filed)
4,500ft
Speed:
(Current/Filed)
120kts
Departed: 29-Jun-19 05:38 PM
Arrived: 29-Jun-19 06:05 PM
Distance/Time
Traveled:
22nm/0:27
Distance/Time
To Go:
Arrived

Flight Plot

Page will automatically refresh every two minutes.


Map Options




Map Legend


Flown Route
Filed Route
Departure Airport
Arrival Airport
Navaid (VOR, NDB)
Fix

Horizontal Profiles

Position Reports

Time Latitude Longitude Heading Altitude Ground
Speed
29-Jun-19 17:15 35.238403 -120.639824 311 216ft 0kts
29-Jun-19 17:16 35.238403 -120.639824 311 216ft 0kts
29-Jun-19 17:17 35.238403 -120.639824 311 216ft 0kts
29-Jun-19 17:18 35.238403 -120.639824 311 216ft 0kts
29-Jun-19 17:19 35.238403 -120.639824 311 216ft 0kts
29-Jun-19 17:20 35.238403 -120.639824 311 216ft 0kts
29-Jun-19 17:21 35.238403 -120.639824 311 216ft 0kts
29-Jun-19 17:22 35.238403 -120.639824 311 216ft 0kts
29-Jun-19 17:23 35.238403 -120.639824 311 216ft 0kts
29-Jun-19 17:24 35.238403 -120.639824 311 216ft 0kts
29-Jun-19 17:25 35.238403 -120.639824 311 216ft 0kts
29-Jun-19 17:26 35.238403 -120.639824 311 216ft 0kts
29-Jun-19 17:27 35.238403 -120.639824 311 216ft 0kts
29-Jun-19 17:28 35.238403 -120.639824 311 216ft 0kts
29-Jun-19 17:29 35.238403 -120.639824 311 216ft 0kts
29-Jun-19 17:31 35.238403 -120.639824 311 216ft 0kts
29-Jun-19 17:32 35.238403 -120.639824 311 216ft 0kts
29-Jun-19 17:33 35.237504 -120.639407 123 216ft 29kts
29-Jun-19 17:34 35.234479 -120.634071 123 216ft 32kts
29-Jun-19 17:35 35.233108 -120.632407 210 216ft 0kts
29-Jun-19 17:36 35.233082 -120.633518 297 216ft 32kts
29-Jun-19 17:37 35.239426 -120.643910 304 522ft 89kts
29-Jun-19 17:38 35.232153 -120.652134 153 988ft 100kts
29-Jun-19 17:39 35.220777 -120.642580 145 1439ft 101kts
29-Jun-19 17:40 35.208403 -120.633099 146 1778ft 107kts
29-Jun-19 17:41 35.194371 -120.622465 148 2060ft 110kts
29-Jun-19 17:42 35.179991 -120.612395 151 2332ft 111kts
29-Jun-19 17:43 35.164230 -120.602633 154 2605ft 112kts
29-Jun-19 17:44 35.150171 -120.594676 154 2830ft 112kts
29-Jun-19 17:45 35.136363 -120.587125 155 3037ft 113kts
29-Jun-19 17:46 35.121071 -120.577830 153 3243ft 112kts
29-Jun-19 17:47 35.106567 -120.570301 158 3408ft 114kts
29-Jun-19 17:48 35.092341 -120.562903 155 3546ft 116kts
29-Jun-19 17:49 35.075700 -120.554586 158 3427ft 126kts
29-Jun-19 17:50 35.059479 -120.546281 156 3418ft 123kts
29-Jun-19 17:51 35.043492 -120.538231 158 3413ft 107kts
29-Jun-19 17:52 35.028167 -120.531870 161 3392ft 104kts
29-Jun-19 17:53 35.012506 -120.524161 153 3102ft 128kts
29-Jun-19 17:54 34.994070 -120.512314 152 2583ft 140kts
29-Jun-19 17:55 34.973862 -120.499678 152 2018ft 140kts
29-Jun-19 17:56 34.953504 -120.486849 153 1445ft 141kts
29-Jun-19 17:57 34.935731 -120.477495 157 1061ft 137kts
29-Jun-19 17:58 34.920338 -120.469380 153 740ft 102kts
29-Jun-19 17:59 34.910073 -120.461034 137 591ft 80kts
29-Jun-19 18:00 34.901362 -120.450966 133 568ft 75kts
29-Jun-19 18:01 34.893907 -120.440784 130 575ft 77kts
29-Jun-19 18:02 34.885689 -120.433225 232 593ft 67kts
29-Jun-19 18:03 34.890972 -120.443619 318 326ft 75kts
29-Jun-19 18:04 34.897173 -120.450313 12 265ft 17kts
29-Jun-19 18:05 34.898369 -120.450267 0 265ft 19kts
29-Jun-19 18:06 34.900622 -120.450524 45 265ft 19kts
29-Jun-19 18:07 34.900962 -120.450206 186 265ft 0kts

Navigation Log

Ident Type
Flight plan parsing failed, navigation log unavailable